createdAt,value
2023-05-31T00:00:17.437Z,503.00
2023-05-31T00:01:17.444Z,503.00
2023-05-31T00:02:17.469Z,502.00
2023-05-31T00:03:17.646Z,502.00
2023-05-31T00:04:17.523Z,502.00
2023-05-31T00:05:17.485Z,500.00
2023-05-31T00:06:17.495Z,500.00
2023-05-31T00:07:17.440Z,501.00
2023-05-31T00:08:17.396Z,500.00
2023-05-31T00:09:17.370Z,501.00
2023-05-31T00:10:17.366Z,499.00
2023-05-31T00:11:17.336Z,499.00
2023-05-31T00:12:17.301Z,498.00
2023-05-31T00:13:17.272Z,498.00
2023-05-31T00:14:17.237Z,499.00
2023-05-31T00:15:17.240Z,498.00
2023-05-31T00:16:45.070Z,498.00
2023-05-31T00:18:18.310Z,498.00
2023-05-31T00:19:17.204Z,499.00
2023-05-31T00:20:17.151Z,499.00
2023-05-31T00:21:17.094Z,500.00
2023-05-31T00:22:17.071Z,499.00
2023-05-31T00:23:17.047Z,499.00
2023-05-31T00:24:17.012Z,498.00
2023-05-31T00:25:16.983Z,497.00
2023-05-31T00:26:16.958Z,498.00
2023-05-31T00:27:16.919Z,495.00
2023-05-31T00:28:16.972Z,495.00
2023-05-31T00:29:16.866Z,498.00
2023-05-31T00:30:16.840Z,500.00
2023-05-31T00:31:16.841Z,498.00
2023-05-31T00:32:16.790Z,498.00
2023-05-31T00:33:16.740Z,497.00
2023-05-31T00:34:16.710Z,497.00
2023-05-31T00:35:16.693Z,496.00
2023-05-31T00:36:16.673Z,497.00
2023-05-31T00:37:16.623Z,497.00
2023-05-31T00:38:16.603Z,494.00
2023-05-31T00:39:16.629Z,494.00
2023-05-31T00:40:16.654Z,491.00
2023-05-31T00:41:16.694Z,490.00
2023-05-31T00:42:16.726Z,490.00
2023-05-31T00:43:16.740Z,490.00
2023-05-31T00:44:16.778Z,491.00
2023-05-31T00:45:16.797Z,491.00
2023-05-31T00:46:16.829Z,492.00
2023-05-31T00:47:16.881Z,494.00
2023-05-31T00:48:16.981Z,495.00
2023-05-31T00:49:16.933Z,493.00
2023-05-31T00:50:16.953Z,493.00
2023-05-31T00:51:16.978Z,494.00
2023-05-31T00:52:17.001Z,497.00
2023-05-31T00:53:17.038Z,498.00
2023-05-31T00:54:17.083Z,498.00
2023-05-31T00:55:17.120Z,499.00
2023-05-31T00:56:17.190Z,499.00
2023-05-31T00:57:17.213Z,498.00
2023-05-31T00:58:17.252Z,496.00
2023-05-31T00:59:17.281Z,497.00
2023-05-31T01:00:17.325Z,495.00
2023-05-31T01:01:17.450Z,494.00
2023-05-31T01:02:17.394Z,495.00
2023-05-31T01:03:17.464Z,495.00
2023-05-31T01:04:17.499Z,493.00
2023-05-31T01:05:17.493Z,494.00
2023-05-31T01:06:17.530Z,495.00
2023-05-31T01:07:17.486Z,495.00
2023-05-31T01:08:17.498Z,497.00
2023-05-31T01:09:17.442Z,497.00
2023-05-31T01:10:17.438Z,498.00
2023-05-31T01:11:17.396Z,498.00
2023-05-31T01:12:17.381Z,497.00
2023-05-31T01:13:17.332Z,498.00
2023-05-31T01:14:17.307Z,496.00
2023-05-31T01:15:17.275Z,492.00
2023-05-31T01:16:17.329Z,489.00
2023-05-31T01:17:17.313Z,489.00
2023-05-31T01:18:17.336Z,489.00
2023-05-31T01:19:17.368Z,488.00
2023-05-31T01:20:17.429Z,486.00
2023-05-31T01:21:17.432Z,486.00
2023-05-31T01:22:17.464Z,486.00
2023-05-31T01:23:17.511Z,487.00
2023-05-31T01:24:17.564Z,488.00
2023-05-31T01:25:17.589Z,490.00
2023-05-31T01:26:17.625Z,491.00
2023-05-31T01:27:17.672Z,492.00
2023-05-31T01:28:17.712Z,491.00
2023-05-31T01:29:17.752Z,493.00
2023-05-31T01:30:17.793Z,490.00
2023-05-31T01:31:17.873Z,490.00
2023-05-31T01:32:17.872Z,490.00
2023-05-31T01:33:17.893Z,491.00
2023-05-31T01:34:17.963Z,490.00
2023-05-31T01:35:17.971Z,489.00
2023-05-31T01:36:18.012Z,489.00
2023-05-31T01:37:18.049Z,487.00
2023-05-31T01:38:18.100Z,486.00
2023-05-31T01:39:18.122Z,486.00
2023-05-31T01:40:18.172Z,489.00
2023-05-31T01:41:18.206Z,489.00
2023-05-31T01:42:18.247Z,490.00
2023-05-31T01:43:18.254Z,491.00
2023-05-31T01:44:18.281Z,491.00
2023-05-31T01:45:18.308Z,493.00
2023-05-31T01:46:18.437Z,494.00
2023-05-31T01:47:18.386Z,491.00
2023-05-31T01:48:18.430Z,490.00
2023-05-31T01:49:18.495Z,490.00
2023-05-31T01:50:18.507Z,489.00
2023-05-31T01:51:18.521Z,488.00
2023-05-31T01:52:18.557Z,487.00
2023-05-31T01:53:18.595Z,486.00
2023-05-31T01:54:18.624Z,485.00
2023-05-31T01:55:18.654Z,484.00
2023-05-31T01:56:18.713Z,482.00
2023-05-31T01:57:18.766Z,482.00
2023-05-31T01:58:18.797Z,482.00
2023-05-31T01:59:18.839Z,480.00
2023-05-31T02:00:18.873Z,479.00
2023-05-31T02:01:18.988Z,481.00
2023-05-31T02:02:18.962Z,483.00
2023-05-31T02:03:19.039Z,484.00
2023-05-31T02:04:19.049Z,485.00
2023-05-31T02:05:19.075Z,484.00
2023-05-31T02:06:19.125Z,482.00
2023-05-31T02:07:19.155Z,482.00
2023-05-31T02:08:19.184Z,482.00
2023-05-31T02:09:19.207Z,484.00
2023-05-31T02:10:19.230Z,486.00
2023-05-31T02:11:19.266Z,489.00
2023-05-31T02:12:19.311Z,488.00
2023-05-31T02:13:19.290Z,488.00
2023-05-31T02:14:19.244Z,489.00
2023-05-31T02:15:19.229Z,488.00
2023-05-31T02:16:19.203Z,488.00
2023-05-31T02:17:19.173Z,491.00
2023-05-31T02:18:19.175Z,491.00
2023-05-31T02:19:19.126Z,493.00
2023-05-31T02:20:19.154Z,492.00
2023-05-31T02:21:19.155Z,492.00
2023-05-31T02:22:19.116Z,493.00
2023-05-31T02:23:19.097Z,492.00
2023-05-31T02:24:19.076Z,490.00
2023-05-31T02:25:19.060Z,487.00
2023-05-31T02:26:19.044Z,486.00
2023-05-31T02:27:18.999Z,487.00
2023-05-31T02:28:18.976Z,487.00
2023-05-31T02:29:18.932Z,490.00
2023-05-31T02:30:18.933Z,492.00
2023-05-31T02:31:19.021Z,492.00
2023-05-31T02:32:18.961Z,494.00
2023-05-31T02:33:18.960Z,493.00
2023-05-31T02:34:18.975Z,492.00
2023-05-31T02:35:19.014Z,491.00
2023-05-31T02:36:19.046Z,492.00
2023-05-31T02:37:19.049Z,495.00
2023-05-31T02:38:19.046Z,495.00
2023-05-31T02:39:19.052Z,494.00
2023-05-31T02:40:19.080Z,493.00
2023-05-31T02:41:19.109Z,493.00
2023-05-31T02:42:19.149Z,491.00
2023-05-31T02:43:19.166Z,490.00
2023-05-31T02:44:19.210Z,489.00
2023-05-31T02:45:19.251Z,490.00
2023-05-31T02:46:19.342Z,489.00
2023-05-31T02:47:19.329Z,490.00
2023-05-31T02:48:19.410Z,491.00
2023-05-31T02:49:19.417Z,491.00
2023-05-31T02:50:19.469Z,491.00
2023-05-31T02:51:19.524Z,489.00
2023-05-31T02:52:19.541Z,490.00
2023-05-31T02:53:19.561Z,489.00
2023-05-31T02:54:19.558Z,487.00
2023-05-31T02:55:19.550Z,484.00
2023-05-31T02:56:19.544Z,485.00
2023-05-31T02:57:19.517Z,487.00
2023-05-31T02:58:19.507Z,486.00
2023-05-31T02:59:19.523Z,486.00
2023-05-31T03:00:19.504Z,482.00
2023-05-31T03:01:19.518Z,482.00
2023-05-31T03:02:19.525Z,478.00
2023-05-31T03:03:19.663Z,477.00
2023-05-31T03:04:19.575Z,476.00
2023-05-31T03:05:19.621Z,475.00
2023-05-31T03:06:19.626Z,475.00
2023-05-31T03:07:19.644Z,475.00
2023-05-31T03:08:19.686Z,473.00
2023-05-31T03:09:19.727Z,477.00
2023-05-31T03:10:19.758Z,477.00
2023-05-31T03:11:19.819Z,475.00
2023-05-31T03:12:19.784Z,472.00
2023-05-31T03:13:19.782Z,469.00
2023-05-31T03:14:19.767Z,467.00
2023-05-31T03:15:19.769Z,468.00
2023-05-31T03:16:19.813Z,468.00
2023-05-31T03:17:19.723Z,468.00
2023-05-31T03:18:19.730Z,468.00
2023-05-31T03:19:19.708Z,469.00
2023-05-31T03:20:19.763Z,470.00
2023-05-31T03:21:19.721Z,467.00
2023-05-31T03:22:19.732Z,469.00
2023-05-31T03:23:19.794Z,468.00
2023-05-31T03:24:19.854Z,466.00
2023-05-31T03:25:19.930Z,465.00
2023-05-31T03:26:19.980Z,468.00
2023-05-31T03:27:20.044Z,468.00
2023-05-31T03:28:20.096Z,469.00
2023-05-31T03:29:20.202Z,468.00
2023-05-31T03:30:20.253Z,468.00
2023-05-31T03:31:20.429Z,466.00
2023-05-31T03:32:20.362Z,467.00
2023-05-31T03:33:20.444Z,467.00
2023-05-31T03:34:20.490Z,466.00
2023-05-31T03:35:20.557Z,468.00
2023-05-31T03:36:20.598Z,469.00
2023-05-31T03:37:20.659Z,469.00
2023-05-31T03:38:20.709Z,466.00
2023-05-31T03:39:20.775Z,465.00
2023-05-31T03:40:20.829Z,465.00
2023-05-31T03:41:20.876Z,464.00
2023-05-31T03:42:20.945Z,464.00
2023-05-31T03:43:21.003Z,465.00
2023-05-31T03:44:21.023Z,466.00
2023-05-31T03:45:21.037Z,467.00
2023-05-31T03:46:21.136Z,468.00
2023-05-31T03:47:21.100Z,468.00
2023-05-31T03:48:21.122Z,468.00
2023-05-31T03:49:21.169Z,466.00
2023-05-31T03:50:21.244Z,463.00
2023-05-31T03:51:21.311Z,462.00
2023-05-31T03:52:21.364Z,460.00
2023-05-31T03:53:21.427Z,458.00
2023-05-31T03:54:21.479Z,461.00
2023-05-31T03:55:21.541Z,460.00
2023-05-31T03:56:21.596Z,460.00
2023-05-31T03:57:21.654Z,460.00
2023-05-31T03:58:21.722Z,459.00
2023-05-31T03:59:21.812Z,458.00
2023-05-31T04:00:21.877Z,460.00
2023-05-31T04:01:21.953Z,459.00
2023-05-31T04:02:22.005Z,459.00
2023-05-31T04:03:22.123Z,456.00
2023-05-31T04:04:22.158Z,458.00
2023-05-31T04:05:22.018Z,461.00
2023-05-31T04:06:22.025Z,460.00
2023-05-31T04:07:22.014Z,457.00
2023-05-31T04:08:22.022Z,458.00
2023-05-31T04:09:22.010Z,460.00
2023-05-31T04:10:22.037Z,459.00
2023-05-31T04:11:22.020Z,460.00
2023-05-31T04:12:22.010Z,457.00
2023-05-31T04:13:22.009Z,456.00
2023-05-31T04:14:22.018Z,456.00
2023-05-31T04:15:22.013Z,457.00
2023-05-31T04:16:22.006Z,458.00
2023-05-31T04:17:21.996Z,458.00
2023-05-31T04:18:22.001Z,460.00
2023-05-31T04:19:22.017Z,460.00
2023-05-31T04:20:22.003Z,460.00
2023-05-31T04:21:21.998Z,459.00
2023-05-31T04:22:22.004Z,462.00
2023-05-31T04:23:22.030Z,462.00
2023-05-31T04:24:21.997Z,458.00
2023-05-31T04:25:22.010Z,458.00
2023-05-31T04:26:22.090Z,456.00
2023-05-31T04:27:22.071Z,457.00
2023-05-31T04:28:22.007Z,458.00
2023-05-31T04:29:22.011Z,459.00
2023-05-31T04:30:22.063Z,461.00
2023-05-31T04:31:22.058Z,458.00
2023-05-31T04:32:22.078Z,457.00
2023-05-31T04:33:22.091Z,455.00
2023-05-31T04:34:22.022Z,454.00
2023-05-31T04:35:22.019Z,452.00
2023-05-31T04:36:22.074Z,454.00
2023-05-31T04:37:22.015Z,455.00
2023-05-31T04:38:22.019Z,452.00
2023-05-31T04:39:22.018Z,451.00
2023-05-31T04:40:22.019Z,450.00
2023-05-31T04:41:22.011Z,451.00
2023-05-31T04:42:22.018Z,450.00
2023-05-31T04:43:22.001Z,449.00
2023-05-31T04:44:22.038Z,451.00
2023-05-31T04:45:22.019Z,452.00
2023-05-31T04:46:22.051Z,453.00
2023-05-31T04:47:22.028Z,454.00
2023-05-31T04:48:21.999Z,454.00
2023-05-31T04:49:21.959Z,454.00
2023-05-31T04:50:21.953Z,453.00
2023-05-31T04:51:21.951Z,451.00
2023-05-31T04:52:21.938Z,451.00
2023-05-31T04:53:21.924Z,451.00
2023-05-31T04:54:21.965Z,449.00
2023-05-31T04:55:21.942Z,450.00
2023-05-31T04:56:21.942Z,448.00
2023-05-31T04:57:21.927Z,451.00
2023-05-31T04:58:21.949Z,452.00
2023-05-31T04:59:21.912Z,452.00
2023-05-31T05:00:21.903Z,449.00
2023-05-31T05:01:21.895Z,447.00
2023-05-31T05:02:21.874Z,447.00
2023-05-31T05:03:21.950Z,450.00
2023-05-31T05:04:21.844Z,452.00
2023-05-31T05:05:21.851Z,452.00
2023-05-31T05:06:21.828Z,452.00
2023-05-31T05:07:21.878Z,453.00
2023-05-31T05:08:21.902Z,453.00
2023-05-31T05:09:21.876Z,453.00
2023-05-31T05:10:21.866Z,454.00
2023-05-31T05:11:21.838Z,457.00
2023-05-31T05:12:21.816Z,455.00
2023-05-31T05:13:21.802Z,454.00
2023-05-31T05:14:21.818Z,454.00
2023-05-31T05:15:21.771Z,456.00
2023-05-31T05:16:21.752Z,457.00
2023-05-31T05:17:21.721Z,458.00
2023-05-31T05:18:21.748Z,458.00
2023-05-31T05:19:21.702Z,457.00
2023-05-31T05:20:21.704Z,459.00
2023-05-31T05:21:21.673Z,459.00
2023-05-31T05:22:21.647Z,458.00
2023-05-31T05:23:21.657Z,458.00
2023-05-31T05:24:21.693Z,459.00
2023-05-31T05:25:21.743Z,460.00
2023-05-31T05:26:21.745Z,459.00
2023-05-31T05:27:21.783Z,459.00
2023-05-31T05:28:21.805Z,458.00
2023-05-31T05:29:21.858Z,460.00
2023-05-31T05:30:21.857Z,459.00
2023-05-31T05:31:21.916Z,459.00
2023-05-31T05:32:21.853Z,457.00
2023-05-31T05:33:21.847Z,457.00
2023-05-31T05:34:21.900Z,460.00
2023-05-31T05:35:21.851Z,462.00
2023-05-31T05:36:21.824Z,463.00
2023-05-31T05:37:21.777Z,471.00
2023-05-31T05:38:21.759Z,490.00
2023-05-31T05:39:21.729Z,496.00
2023-05-31T05:40:21.717Z,512.00
2023-05-31T05:41:21.701Z,531.00
2023-05-31T05:42:21.674Z,542.00
2023-05-31T05:43:21.650Z,546.00
2023-05-31T05:44:21.620Z,566.00
2023-05-31T05:45:21.611Z,604.00
2023-05-31T05:46:21.644Z,615.00
2023-05-31T05:47:21.585Z,621.00
2023-05-31T05:48:21.586Z,626.00
2023-05-31T05:49:21.553Z,642.00
2023-05-31T05:50:21.556Z,650.00
2023-05-31T05:51:21.630Z,702.00
2023-05-31T05:52:21.617Z,741.00
2023-05-31T05:53:21.567Z,758.00
2023-05-31T05:54:21.552Z,766.00
2023-05-31T05:55:21.562Z,775.00
2023-05-31T05:56:21.528Z,785.00
2023-05-31T05:57:21.507Z,813.00
2023-05-31T05:58:21.482Z,841.00
2023-05-31T05:59:21.446Z,850.00
2023-05-31T06:00:21.469Z,862.00
2023-05-31T06:01:21.428Z,872.00
2023-05-31T06:02:21.427Z,882.00
2023-05-31T06:03:21.441Z,897.00
2023-05-31T06:04:21.337Z,912.00
2023-05-31T06:05:21.327Z,934.00
2023-05-31T06:06:21.293Z,952.00
2023-05-31T06:07:21.293Z,965.00
2023-05-31T06:08:21.269Z,974.00
2023-05-31T06:09:21.223Z,977.00
2023-05-31T06:10:21.170Z,987.00
2023-05-31T06:11:21.151Z,999.00
2023-05-31T06:12:21.124Z,1009.00
2023-05-31T06:13:21.083Z,1021.00
2023-05-31T06:14:21.065Z,1033.00
2023-05-31T06:15:21.101Z,1033.00
2023-05-31T06:16:21.222Z,1044.00
2023-05-31T06:17:21.266Z,1052.00
2023-05-31T06:18:21.195Z,1067.00
2023-05-31T06:19:21.202Z,1074.00
2023-05-31T06:20:21.268Z,1080.00
2023-05-31T06:21:21.184Z,1086.00
2023-05-31T06:22:21.175Z,1104.00
2023-05-31T06:23:21.121Z,1111.00
2023-05-31T06:24:21.099Z,1124.00
2023-05-31T06:25:21.070Z,1137.00
2023-05-31T06:26:21.042Z,1149.00
2023-05-31T06:27:21.009Z,1167.00
2023-05-31T06:28:20.961Z,1236.00
2023-05-31T06:29:20.927Z,1243.00
2023-05-31T06:30:20.956Z,1245.00
2023-05-31T06:31:20.874Z,1247.00
2023-05-31T06:32:20.845Z,1251.00
2023-05-31T06:33:20.844Z,1261.00
2023-05-31T06:34:20.851Z,1274.00
2023-05-31T06:35:20.868Z,1290.00
2023-05-31T06:36:20.864Z,1299.00
2023-05-31T06:37:20.885Z,1306.00
2023-05-31T06:38:20.874Z,1319.00
2023-05-31T06:39:20.849Z,1321.00
2023-05-31T06:40:20.799Z,1340.00
2023-05-31T06:41:20.753Z,1347.00
2023-05-31T06:42:20.758Z,1353.00
2023-05-31T06:43:20.731Z,1227.00
2023-05-31T06:44:20.665Z,1279.00
2023-05-31T06:45:20.614Z,1273.00
2023-05-31T06:46:20.601Z,1274.00
2023-05-31T06:47:20.789Z,1011.00
2023-05-31T06:48:20.556Z,844.00
2023-05-31T06:49:20.536Z,806.00
2023-05-31T06:50:20.473Z,739.00
2023-05-31T06:51:20.541Z,822.00
2023-05-31T06:52:20.547Z,831.00
2023-05-31T06:53:20.567Z,750.00
2023-05-31T06:54:20.597Z,857.00
2023-05-31T06:55:20.633Z,778.00
2023-05-31T06:56:20.650Z,775.00
2023-05-31T06:57:20.704Z,756.00
2023-05-31T06:58:20.728Z,710.00
2023-05-31T06:59:20.775Z,705.00
2023-05-31T07:00:20.831Z,618.00
2023-05-31T07:01:20.893Z,614.00
2023-05-31T07:02:20.900Z,614.00
2023-05-31T07:03:20.972Z,637.00
2023-05-31T07:04:20.899Z,645.00
2023-05-31T07:05:20.880Z,635.00
2023-05-31T07:06:22.459Z,625.00
2023-05-31T07:07:20.872Z,612.00
2023-05-31T07:08:20.818Z,603.00
2023-05-31T07:09:20.799Z,601.00
2023-05-31T07:10:20.775Z,606.00
2023-05-31T07:11:20.787Z,635.00
2023-05-31T07:12:20.724Z,645.00
2023-05-31T07:13:20.736Z,675.00
2023-05-31T07:14:20.704Z,700.00
2023-05-31T07:15:20.705Z,724.00
2023-05-31T07:16:20.784Z,749.00
2023-05-31T07:17:20.785Z,755.00
2023-05-31T07:18:20.826Z,754.00
2023-05-31T07:19:20.871Z,739.00
2023-05-31T07:20:20.930Z,707.00
2023-05-31T07:21:20.953Z,653.00
2023-05-31T07:22:20.991Z,598.00
2023-05-31T07:23:20.997Z,575.00
2023-05-31T07:24:21.009Z,564.00
2023-05-31T07:25:21.015Z,554.00
2023-05-31T07:26:21.014Z,521.00
2023-05-31T07:27:20.991Z,555.00
2023-05-31T07:28:20.987Z,534.00
2023-05-31T07:29:20.978Z,477.00
2023-05-31T07:30:20.943Z,484.00
2023-05-31T07:31:21.916Z,478.00
2023-05-31T07:32:20.950Z,473.00
2023-05-31T07:33:28.895Z,465.00
2023-05-31T07:34:21.917Z,457.00
2023-05-31T07:35:20.907Z,457.00
2023-05-31T07:36:21.096Z,463.00
2023-05-31T07:37:20.884Z,466.00
2023-05-31T07:38:20.860Z,577.00
2023-05-31T07:39:20.873Z,534.00
2023-05-31T07:40:20.802Z,496.00
2023-05-31T07:41:20.778Z,504.00
2023-05-31T07:42:20.749Z,526.00
2023-05-31T07:43:20.741Z,573.00
2023-05-31T07:44:20.748Z,571.00
2023-05-31T07:45:20.697Z,681.00
2023-05-31T07:46:20.666Z,653.00
2023-05-31T07:47:20.646Z,654.00
2023-05-31T07:48:20.586Z,660.00
2023-05-31T07:49:20.858Z,678.00
2023-05-31T07:50:20.560Z,695.00
2023-05-31T07:51:20.792Z,706.00
2023-05-31T07:52:20.520Z,732.00
2023-05-31T07:53:20.476Z,730.00
2023-05-31T07:54:20.449Z,725.00
2023-05-31T07:55:20.454Z,714.00
2023-05-31T07:56:20.521Z,703.00
2023-05-31T07:57:20.423Z,690.00
2023-05-31T07:58:20.391Z,674.00
2023-05-31T07:59:20.392Z,649.00
2023-05-31T08:00:20.320Z,639.00
2023-05-31T08:01:20.298Z,623.00
2023-05-31T08:02:20.302Z,614.00
2023-05-31T08:03:20.280Z,609.00
2023-05-31T08:04:20.305Z,602.00
2023-05-31T08:05:20.229Z,597.00
2023-05-31T08:06:20.149Z,588.00
2023-05-31T08:07:20.126Z,582.00
2023-05-31T08:08:20.096Z,573.00
2023-05-31T08:09:20.078Z,563.00
2023-05-31T08:10:20.146Z,555.00
2023-05-31T08:11:20.011Z,549.00
2023-05-31T08:12:23.800Z,545.00
2023-05-31T08:13:20.977Z,545.00
2023-05-31T08:14:19.937Z,544.00
2023-05-31T08:15:19.896Z,540.00
2023-05-31T08:16:19.912Z,537.00
2023-05-31T08:17:19.956Z,534.00
2023-05-31T08:18:19.842Z,528.00
2023-05-31T08:19:19.824Z,522.00
2023-05-31T08:20:19.823Z,519.00
2023-05-31T08:21:19.759Z,513.00
2023-05-31T08:22:19.741Z,511.00
2023-05-31T08:23:19.715Z,510.00
2023-05-31T08:24:19.680Z,503.00
2023-05-31T08:25:19.658Z,499.00
2023-05-31T08:26:19.642Z,494.00
2023-05-31T08:27:19.711Z,483.00
2023-05-31T08:28:19.624Z,472.00
2023-05-31T08:29:19.578Z,465.00
2023-05-31T08:30:19.614Z,461.00
2023-05-31T08:31:19.651Z,456.00
2023-05-31T08:32:19.646Z,450.00
2023-05-31T08:33:19.677Z,446.00
2023-05-31T08:34:19.682Z,445.00
2023-05-31T08:35:19.694Z,442.00
2023-05-31T08:36:19.692Z,438.00
2023-05-31T08:37:19.699Z,435.00
2023-05-31T08:38:19.645Z,434.00
2023-05-31T08:39:19.630Z,430.00
2023-05-31T08:40:19.615Z,429.00
2023-05-31T08:41:19.588Z,428.00
2023-05-31T08:42:19.602Z,428.00
2023-05-31T08:43:19.530Z,428.00
2023-05-31T08:44:19.501Z,425.00
2023-05-31T08:45:19.501Z,423.00
2023-05-31T08:46:19.536Z,422.00
2023-05-31T08:47:19.536Z,422.00
2023-05-31T08:48:19.515Z,421.00
2023-05-31T08:49:19.378Z,421.00
2023-05-31T08:50:19.367Z,420.00
2023-05-31T08:51:19.339Z,415.00
2023-05-31T08:52:19.314Z,416.00
2023-05-31T08:53:19.308Z,416.00
2023-05-31T08:54:19.255Z,416.00
2023-05-31T08:55:19.299Z,415.00
2023-05-31T08:56:19.348Z,416.00
2023-05-31T08:57:19.437Z,415.00
2023-05-31T08:58:19.434Z,414.00
2023-05-31T08:59:19.493Z,414.00
2023-05-31T09:00:19.536Z,415.00
2023-05-31T09:01:19.593Z,414.00
2023-05-31T09:02:19.612Z,415.00
2023-05-31T09:03:19.640Z,415.00
2023-05-31T09:04:19.697Z,416.00
2023-05-31T09:05:19.774Z,417.00
2023-05-31T09:06:19.792Z,417.00
2023-05-31T09:07:19.875Z,418.00
2023-05-31T09:08:19.830Z,418.00
2023-05-31T09:09:19.735Z,418.00
2023-05-31T09:10:19.725Z,416.00
2023-05-31T09:11:19.691Z,417.00
2023-05-31T09:12:19.733Z,418.00
2023-05-31T09:13:19.642Z,415.00
2023-05-31T09:14:19.604Z,415.00
2023-05-31T09:15:19.659Z,412.00
2023-05-31T09:16:19.695Z,411.00
2023-05-31T09:17:19.687Z,413.00
2023-05-31T09:18:19.696Z,412.00
2023-05-31T09:19:19.765Z,413.00
2023-05-31T09:20:19.872Z,414.00
2023-05-31T09:21:19.774Z,415.00
2023-05-31T09:22:19.844Z,417.00
2023-05-31T09:23:19.831Z,420.00
2023-05-31T09:24:19.833Z,418.00
2023-05-31T09:25:19.857Z,418.00
2023-05-31T09:26:19.901Z,415.00
2023-05-31T09:27:19.914Z,415.00
2023-05-31T09:28:19.934Z,416.00
2023-05-31T09:29:19.929Z,415.00
2023-05-31T09:30:19.971Z,417.00
2023-05-31T09:31:19.887Z,418.00
2023-05-31T09:32:19.866Z,417.00
2023-05-31T09:33:19.904Z,415.00
2023-05-31T09:34:19.840Z,414.00
2023-05-31T09:35:19.739Z,414.00
2023-05-31T09:36:19.729Z,413.00
2023-05-31T09:37:19.684Z,413.00
2023-05-31T09:38:19.655Z,412.00
2023-05-31T09:39:19.629Z,413.00
2023-05-31T09:40:19.602Z,413.00
2023-05-31T09:41:19.573Z,413.00
2023-05-31T09:42:19.559Z,415.00
2023-05-31T09:43:19.581Z,415.00
2023-05-31T09:44:19.479Z,417.00
2023-05-31T09:45:19.447Z,417.00
2023-05-31T09:46:19.442Z,415.00
2023-05-31T09:47:19.408Z,416.00
2023-05-31T09:48:19.343Z,417.00
2023-05-31T09:49:19.314Z,417.00
2023-05-31T09:50:19.383Z,416.00
2023-05-31T09:51:19.267Z,416.00
2023-05-31T09:52:19.237Z,417.00
2023-05-31T09:53:19.381Z,415.00
2023-05-31T09:54:19.197Z,414.00
2023-05-31T09:55:19.134Z,415.00
2023-05-31T09:56:19.178Z,415.00
2023-05-31T09:57:19.086Z,415.00
2023-05-31T09:58:19.061Z,419.00
2023-05-31T09:59:19.102Z,420.00
2023-05-31T10:00:19.128Z,419.00
2023-05-31T10:01:19.178Z,418.00
2023-05-31T10:02:19.167Z,419.00
2023-05-31T10:03:19.246Z,419.00
2023-05-31T10:04:19.139Z,416.00
2023-05-31T10:05:19.108Z,414.00
2023-05-31T10:06:19.088Z,417.00
2023-05-31T10:07:19.051Z,417.00
2023-05-31T10:08:19.064Z,418.00
2023-05-31T10:09:18.993Z,420.00
2023-05-31T10:10:18.971Z,418.00
2023-05-31T10:11:18.939Z,419.00
2023-05-31T10:12:18.952Z,421.00
2023-05-31T10:13:18.922Z,423.00
2023-05-31T10:14:18.888Z,421.00
2023-05-31T10:15:18.913Z,424.00
2023-05-31T10:16:19.020Z,427.00
2023-05-31T10:17:18.948Z,427.00
2023-05-31T10:18:18.975Z,427.00
2023-05-31T10:19:19.101Z,428.00
2023-05-31T10:20:19.035Z,426.00
2023-05-31T10:21:19.035Z,424.00
2023-05-31T10:22:19.043Z,424.00
2023-05-31T10:23:19.058Z,424.00
2023-05-31T10:24:19.092Z,425.00
2023-05-31T10:25:19.116Z,426.00
2023-05-31T10:26:19.136Z,428.00
2023-05-31T10:27:19.172Z,429.00
2023-05-31T10:28:19.152Z,428.00
2023-05-31T10:29:19.184Z,426.00
2023-05-31T10:30:19.200Z,424.00
2023-05-31T10:31:19.292Z,425.00
2023-05-31T10:32:19.268Z,425.00
2023-05-31T10:33:19.274Z,425.00
2023-05-31T10:34:19.290Z,424.00
2023-05-31T10:35:19.321Z,424.00
2023-05-31T10:36:19.326Z,425.00
2023-05-31T10:37:19.363Z,428.00
2023-05-31T10:38:19.353Z,428.00
2023-05-31T10:39:19.358Z,428.00
2023-05-31T10:40:19.386Z,427.00
2023-05-31T10:41:25.068Z,427.00
2023-05-31T10:42:20.329Z,428.00
2023-05-31T10:43:19.286Z,430.00
2023-05-31T10:44:19.351Z,431.00
2023-05-31T10:45:19.229Z,428.00
2023-05-31T10:46:19.228Z,429.00
2023-05-31T10:47:19.213Z,428.00
2023-05-31T10:48:19.188Z,426.00
2023-05-31T10:49:19.113Z,426.00
2023-05-31T10:50:19.090Z,429.00
2023-05-31T10:51:19.051Z,430.00
2023-05-31T10:52:19.044Z,429.00
2023-05-31T10:53:19.005Z,431.00
2023-05-31T10:54:18.996Z,431.00
2023-05-31T10:55:18.954Z,432.00
2023-05-31T10:56:18.954Z,432.00
2023-05-31T10:57:18.958Z,434.00
2023-05-31T10:58:18.971Z,434.00
2023-05-31T10:59:19.005Z,435.00
2023-05-31T11:00:19.041Z,434.00
2023-05-31T11:01:19.102Z,431.00
2023-05-31T11:02:19.174Z,431.00
2023-05-31T11:03:19.167Z,430.00
2023-05-31T11:04:19.326Z,429.00
2023-05-31T11:05:19.157Z,427.00
2023-05-31T11:06:19.154Z,425.00
2023-05-31T11:07:19.193Z,428.00
2023-05-31T11:08:19.200Z,428.00
2023-05-31T11:09:19.220Z,433.00
2023-05-31T11:10:19.263Z,432.00
2023-05-31T11:11:19.268Z,432.00
2023-05-31T11:12:19.296Z,433.00
2023-05-31T11:13:19.699Z,431.00
2023-05-31T11:14:19.349Z,429.00
2023-05-31T11:15:19.390Z,426.00
2023-05-31T11:16:19.458Z,428.00
2023-05-31T11:17:19.436Z,428.00
2023-05-31T11:18:19.473Z,429.00
2023-05-31T11:19:19.494Z,430.00
2023-05-31T11:20:19.582Z,430.00
2023-05-31T11:21:19.452Z,430.00
2023-05-31T11:22:19.424Z,432.00
2023-05-31T11:23:19.403Z,432.00
2023-05-31T11:24:19.444Z,433.00
2023-05-31T11:25:19.413Z,433.00
2023-05-31T11:26:19.361Z,433.00
2023-05-31T11:27:19.362Z,433.00
2023-05-31T11:28:19.267Z,431.00
2023-05-31T11:29:19.246Z,430.00
2023-05-31T11:30:19.285Z,432.00
2023-05-31T11:31:19.307Z,438.00
2023-05-31T11:32:19.370Z,441.00
2023-05-31T11:33:19.368Z,443.00
2023-05-31T11:34:19.383Z,445.00
2023-05-31T11:35:19.407Z,444.00
2023-05-31T11:36:19.423Z,446.00
2023-05-31T11:37:19.469Z,448.00
2023-05-31T11:38:19.473Z,456.00
2023-05-31T11:39:19.469Z,468.00
2023-05-31T11:40:19.513Z,478.00
2023-05-31T11:41:19.492Z,482.00
2023-05-31T11:42:19.542Z,480.00
2023-05-31T11:43:19.505Z,483.00
2023-05-31T11:44:19.517Z,483.00
2023-05-31T11:45:19.564Z,485.00
2023-05-31T11:46:19.527Z,487.00
2023-05-31T11:47:19.564Z,487.00
2023-05-31T11:48:19.561Z,488.00
2023-05-31T11:49:19.509Z,490.00
2023-05-31T11:50:19.539Z,490.00
2023-05-31T11:51:19.561Z,488.00
2023-05-31T11:52:19.592Z,488.00
2023-05-31T11:53:19.542Z,487.00
2023-05-31T11:54:19.512Z,496.00
2023-05-31T11:55:19.533Z,511.00
2023-05-31T11:56:19.506Z,512.00
2023-05-31T11:57:19.521Z,518.00
2023-05-31T11:58:19.505Z,523.00
2023-05-31T11:59:19.510Z,519.00
2023-05-31T12:00:19.470Z,520.00
2023-05-31T12:01:19.450Z,520.00
2023-05-31T12:02:19.579Z,516.00
2023-05-31T12:03:19.604Z,517.00
2023-05-31T12:04:19.530Z,517.00
2023-05-31T12:05:19.396Z,516.00
2023-05-31T12:06:19.370Z,516.00
2023-05-31T12:07:19.377Z,515.00
2023-05-31T12:08:19.325Z,517.00
2023-05-31T12:09:19.293Z,518.00
2023-05-31T12:10:19.240Z,517.00
2023-05-31T12:11:19.199Z,520.00
2023-05-31T12:12:19.224Z,519.00
2023-05-31T12:13:19.175Z,517.00
2023-05-31T12:14:19.086Z,518.00
2023-05-31T12:15:19.078Z,517.00
2023-05-31T12:16:19.074Z,513.00
2023-05-31T12:17:19.036Z,512.00
2023-05-31T12:18:18.970Z,512.00
2023-05-31T12:19:18.942Z,508.00
2023-05-31T12:20:18.918Z,506.00
2023-05-31T12:21:18.862Z,509.00
2023-05-31T12:22:18.834Z,508.00
2023-05-31T12:23:18.802Z,505.00
2023-05-31T12:24:18.746Z,509.00
2023-05-31T12:25:18.730Z,508.00
2023-05-31T12:26:18.695Z,507.00
2023-05-31T12:27:19.806Z,506.00
2023-05-31T12:28:18.695Z,505.00